sensor_id;sensor_type;location;lat;lon;timestamp;P1;durP1;ratioP1;P2;durP2;ratioP2
12812;SDS011;6471;50.932;6.934;2022-09-01T00:01:56;1.67;;;1.57;;
12812;SDS011;6471;50.932;6.934;2022-09-01T00:04:23;1.60;;;1.50;;
12812;SDS011;6471;50.932;6.934;2022-09-01T00:06:51;1.80;;;1.70;;
12812;SDS011;6471;50.932;6.934;2022-09-01T00:09:19;1.60;;;1.47;;
12812;SDS011;6471;50.932;6.934;2022-09-01T00:11:47;1.80;;;1.70;;
12812;SDS011;6471;50.932;6.934;2022-09-01T00:14:13;1.70;;;1.50;;
12812;SDS011;6471;50.932;6.934;2022-09-01T00:16:40;1.57;;;1.47;;
12812;SDS011;6471;50.932;6.934;2022-09-01T00:19:06;1.57;;;1.47;;
12812;SDS011;6471;50.932;6.934;2022-09-01T00:21:33;1.57;;;1.47;;
12812;SDS011;6471;50.932;6.934;2022-09-01T00:23:59;1.70;;;1.40;;
12812;SDS011;6471;50.932;6.934;2022-09-01T00:26:26;1.70;;;1.60;;
12812;SDS011;6471;50.932;6.934;2022-09-01T00:28:52;1.67;;;1.57;;
12812;SDS011;6471;50.932;6.934;2022-09-01T00:31:19;1.40;;;1.30;;
12812;SDS011;6471;50.932;6.934;2022-09-01T00:33:48;1.40;;;1.30;;
12812;SDS011;6471;50.932;6.934;2022-09-01T00:36:17;1.70;;;1.30;;
12812;SDS011;6471;50.932;6.934;2022-09-01T00:38:43;1.33;;;1.23;;
12812;SDS011;6471;50.932;6.934;2022-09-01T00:41:10;1.60;;;1.50;;
12812;SDS011;6471;50.932;6.934;2022-09-01T00:43:46;1.50;;;1.40;;
12812;SDS011;6471;50.932;6.934;2022-09-01T00:46:16;1.50;;;1.40;;
12812;SDS011;6471;50.932;6.934;2022-09-01T00:48:43;1.60;;;1.40;;
12812;SDS011;6471;50.932;6.934;2022-09-01T00:51:09;1.60;;;1.50;;
12812;SDS011;6471;50.932;6.934;2022-09-01T00:53:36;1.80;;;1.70;;
12812;SDS011;6471;50.932;6.934;2022-09-01T00:56:03;2.00;;;1.77;;
12812;SDS011;6471;50.932;6.934;2022-09-01T00:58:30;1.50;;;1.40;;
12812;SDS011;6471;50.932;6.934;2022-09-01T01:00:56;1.60;;;1.30;;
12812;SDS011;6471;50.932;6.934;2022-09-01T01:03:23;1.60;;;1.50;;
12812;SDS011;6471;50.932;6.934;2022-09-01T01:05:50;1.67;;;1.50;;
12812;SDS011;6471;50.932;6.934;2022-09-01T01:08:19;1.50;;;1.40;;
12812;SDS011;6471;50.932;6.934;2022-09-01T01:10:51;1.63;;;1.53;;
12812;SDS011;6471;50.932;6.934;2022-09-01T01:13:17;1.47;;;1.37;;
12812;SDS011;6471;50.932;6.934;2022-09-01T01:15:45;2.53;;;1.50;;
12812;SDS011;6471;50.932;6.934;2022-09-01T01:18:11;1.87;;;1.67;;
12812;SDS011;6471;50.932;6.934;2022-09-01T01:20:37;1.60;;;1.50;;
12812;SDS011;6471;50.932;6.934;2022-09-01T01:25:59;1.50;;;1.40;;
12812;SDS011;6471;50.932;6.934;2022-09-01T01:28:28;1.60;;;1.50;;
12812;SDS011;6471;50.932;6.934;2022-09-01T01:30:59;1.50;;;1.40;;
12812;SDS011;6471;50.932;6.934;2022-09-01T01:33:28;1.60;;;1.50;;
12812;SDS011;6471;50.932;6.934;2022-09-01T01:35:55;1.80;;;1.70;;
12812;SDS011;6471;50.932;6.934;2022-09-01T01:38:22;2.00;;;1.50;;
12812;SDS011;6471;50.932;6.934;2022-09-01T01:40:48;1.40;;;1.30;;
12812;SDS011;6471;50.932;6.934;2022-09-01T01:43:15;1.80;;;1.50;;
12812;SDS011;6471;50.932;6.934;2022-09-01T01:45:46;1.60;;;1.50;;
12812;SDS011;6471;50.932;6.934;2022-09-01T01:48:16;1.50;;;1.40;;
12812;SDS011;6471;50.932;6.934;2022-09-01T01:50:48;1.50;;;1.40;;
12812;SDS011;6471;50.932;6.934;2022-09-01T01:53:15;1.50;;;1.40;;
12812;SDS011;6471;50.932;6.934;2022-09-01T01:55:43;1.50;;;1.40;;
12812;SDS011;6471;50.932;6.934;2022-09-01T01:58:09;1.50;;;1.40;;
12812;SDS011;6471;50.932;6.934;2022-09-01T02:00:39;1.50;;;1.40;;
12812;SDS011;6471;50.932;6.934;2022-09-01T02:03:09;1.40;;;1.30;;
12812;SDS011;6471;50.932;6.934;2022-09-01T02:05:37;1.60;;;1.50;;
12812;SDS011;6471;50.932;6.934;2022-09-01T02:08:05;1.77;;;1.47;;
12812;SDS011;6471;50.932;6.934;2022-09-01T02:10:33;2.00;;;1.80;;
12812;SDS011;6471;50.932;6.934;2022-09-01T02:13:00;2.37;;;1.73;;
12812;SDS011;6471;50.932;6.934;2022-09-01T02:15:32;2.63;;;1.50;;
12812;SDS011;6471;50.932;6.934;2022-09-01T02:18:07;2.13;;;1.60;;
12812;SDS011;6471;50.932;6.934;2022-09-01T02:20:34;1.70;;;1.60;;
12812;SDS011;6471;50.932;6.934;2022-09-01T02:23:01;1.60;;;1.50;;
12812;SDS011;6471;50.932;6.934;2022-09-01T02:25:33;2.23;;;1.63;;
12812;SDS011;6471;50.932;6.934;2022-09-01T02:27:59;1.70;;;1.60;;
12812;SDS011;6471;50.932;6.934;2022-09-01T02:30:28;1.70;;;1.60;;
12812;SDS011;6471;50.932;6.934;2022-09-01T02:32:57;1.90;;;1.70;;
12812;SDS011;6471;50.932;6.934;2022-09-01T02:35:23;1.50;;;1.40;;
12812;SDS011;6471;50.932;6.934;2022-09-01T02:37:55;1.63;;;1.53;;
12812;SDS011;6471;50.932;6.934;2022-09-01T02:40:24;2.23;;;1.70;;
12812;SDS011;6471;50.932;6.934;2022-09-01T02:42:53;1.70;;;1.60;;
12812;SDS011;6471;50.932;6.934;2022-09-01T02:45:19;1.73;;;1.43;;
12812;SDS011;6471;50.932;6.934;2022-09-01T02:47:48;2.17;;;1.93;;
12812;SDS011;6471;50.932;6.934;2022-09-01T02:50:15;1.73;;;1.40;;
12812;SDS011;6471;50.932;6.934;2022-09-01T02:52:43;1.93;;;1.50;;
12812;SDS011;6471;50.932;6.934;2022-09-01T02:55:10;1.63;;;1.53;;
12812;SDS011;6471;50.932;6.934;2022-09-01T02:57:36;1.50;;;1.40;;
12812;SDS011;6471;50.932;6.934;2022-09-01T03:00:04;1.60;;;1.50;;
12812;SDS011;6471;50.932;6.934;2022-09-01T03:02:44;1.60;;;1.50;;
12812;SDS011;6471;50.932;6.934;2022-09-01T03:05:11;1.33;;;1.23;;
12812;SDS011;6471;50.932;6.934;2022-09-01T03:07:39;1.53;;;1.43;;
12812;SDS011;6471;50.932;6.934;2022-09-01T03:10:06;1.40;;;1.30;;
12812;SDS011;6471;50.932;6.934;2022-09-01T03:12:33;1.40;;;1.30;;
12812;SDS011;6471;50.932;6.934;2022-09-01T03:15:00;1.77;;;1.67;;
12812;SDS011;6471;50.932;6.934;2022-09-01T03:17:26;1.50;;;1.40;;
12812;SDS011;6471;50.932;6.934;2022-09-01T03:19:52;1.77;;;1.40;;
12812;SDS011;6471;50.932;6.934;2022-09-01T03:22:18;1.50;;;1.40;;
12812;SDS011;6471;50.932;6.934;2022-09-01T03:24:46;1.53;;;1.43;;
12812;SDS011;6471;50.932;6.934;2022-09-01T03:27:12;1.70;;;1.50;;
12812;SDS011;6471;50.932;6.934;2022-09-01T03:29:39;1.30;;;1.20;;
12812;SDS011;6471;50.932;6.934;2022-09-01T03:32:05;1.60;;;1.50;;
12812;SDS011;6471;50.932;6.934;2022-09-01T03:34:31;1.50;;;1.40;;
12812;SDS011;6471;50.932;6.934;2022-09-01T03:36:58;1.60;;;1.50;;
12812;SDS011;6471;50.932;6.934;2022-09-01T03:39:25;1.60;;;1.50;;
12812;SDS011;6471;50.932;6.934;2022-09-01T03:41:51;1.73;;;1.50;;
12812;SDS011;6471;50.932;6.934;2022-09-01T03:44:18;1.53;;;1.37;;
12812;SDS011;6471;50.932;6.934;2022-09-01T03:46:44;1.60;;;1.50;;
12812;SDS011;6471;50.932;6.934;2022-09-01T03:49:10;2.90;;;1.50;;
12812;SDS011;6471;50.932;6.934;2022-09-01T03:51:39;2.33;;;1.60;;
12812;SDS011;6471;50.932;6.934;2022-09-01T03:54:07;1.83;;;1.53;;
12812;SDS011;6471;50.932;6.934;2022-09-01T03:56:33;2.27;;;1.70;;
12812;SDS011;6471;50.932;6.934;2022-09-01T03:58:59;1.43;;;1.33;;
12812;SDS011;6471;50.932;6.934;2022-09-01T04:01:26;1.50;;;1.40;;
12812;SDS011;6471;50.932;6.934;2022-09-01T04:03:52;1.50;;;1.27;;
12812;SDS011;6471;50.932;6.934;2022-09-01T04:06:18;1.70;;;1.53;;
12812;SDS011;6471;50.932;6.934;2022-09-01T04:08:45;1.57;;;1.27;;
12812;SDS011;6471;50.932;6.934;2022-09-01T04:11:13;1.50;;;1.40;;
12812;SDS011;6471;50.932;6.934;2022-09-01T04:13:42;1.40;;;1.30;;
12812;SDS011;6471;50.932;6.934;2022-09-01T04:16:19;1.40;;;1.27;;
12812;SDS011;6471;50.932;6.934;2022-09-01T04:19:04;1.40;;;1.30;;
12812;SDS011;6471;50.932;6.934;2022-09-01T04:21:40;1.53;;;1.43;;
12812;SDS011;6471;50.932;6.934;2022-09-01T04:24:07;2.13;;;1.23;;
12812;SDS011;6471;50.932;6.934;2022-09-01T04:26:36;1.37;;;1.27;;
12812;SDS011;6471;50.932;6.934;2022-09-01T04:29:02;1.30;;;1.20;;
12812;SDS011;6471;50.932;6.934;2022-09-01T04:31:28;1.57;;;1.40;;
12812;SDS011;6471;50.932;6.934;2022-09-01T04:33:55;1.30;;;1.20;;
12812;SDS011;6471;50.932;6.934;2022-09-01T04:36:26;1.37;;;1.27;;
12812;SDS011;6471;50.932;6.934;2022-09-01T04:38:57;2.90;;;1.40;;
12812;SDS011;6471;50.932;6.934;2022-09-01T04:41:25;1.47;;;1.30;;
12812;SDS011;6471;50.932;6.934;2022-09-01T04:43:52;1.30;;;1.20;;
12812;SDS011;6471;50.932;6.934;2022-09-01T04:46:22;1.50;;;1.40;;
12812;SDS011;6471;50.932;6.934;2022-09-01T04:48:53;1.30;;;1.20;;
12812;SDS011;6471;50.932;6.934;2022-09-01T04:51:19;1.30;;;1.20;;
12812;SDS011;6471;50.932;6.934;2022-09-01T04:53:46;1.30;;;1.20;;
12812;SDS011;6471;50.932;6.934;2022-09-01T04:56:16;1.50;;;1.20;;
12812;SDS011;6471;50.932;6.934;2022-09-01T04:58:44;1.33;;;1.23;;
12812;SDS011;6471;50.932;6.934;2022-09-01T05:01:14;1.40;;;1.30;;
12812;SDS011;6471;50.932;6.934;2022-09-01T05:16:36;1.10;;;1.00;;
12812;SDS011;6471;50.932;6.934;2022-09-01T05:19:12;1.77;;;1.20;;
12812;SDS011;6471;50.932;6.934;2022-09-01T05:21:41;1.60;;;1.40;;
12812;SDS011;6471;50.932;6.934;2022-09-01T05:27:12;1.50;;;1.23;;
12812;SDS011;6471;50.932;6.934;2022-09-01T05:29:46;1.93;;;1.50;;
12812;SDS011;6471;50.932;6.934;2022-09-01T05:32:13;1.70;;;1.60;;
12812;SDS011;6471;50.932;6.934;2022-09-01T05:34:56;1.57;;;1.37;;
12812;SDS011;6471;50.932;6.934;2022-09-01T05:37:25;2.17;;;1.40;;
12812;SDS011;6471;50.932;6.934;2022-09-01T05:40:00;1.40;;;1.30;;
12812;SDS011;6471;50.932;6.934;2022-09-01T05:42:26;2.27;;;1.30;;
12812;SDS011;6471;50.932;6.934;2022-09-01T05:44:52;4.00;;;1.67;;
12812;SDS011;6471;50.932;6.934;2022-09-01T05:47:19;1.83;;;1.60;;
12812;SDS011;6471;50.932;6.934;2022-09-01T05:49:45;5.87;;;2.43;;
12812;SDS011;6471;50.932;6.934;2022-09-01T05:52:11;3.57;;;2.00;;
12812;SDS011;6471;50.932;6.934;2022-09-01T05:54:37;2.90;;;2.20;;
12812;SDS011;6471;50.932;6.934;2022-09-01T05:57:05;4.67;;;2.13;;
12812;SDS011;6471;50.932;6.934;2022-09-01T05:59:31;4.73;;;2.17;;
12812;SDS011;6471;50.932;6.934;2022-09-01T06:01:58;2.20;;;1.73;;
12812;SDS011;6471;50.932;6.934;2022-09-01T06:04:25;3.10;;;1.90;;
12812;SDS011;6471;50.932;6.934;2022-09-01T06:06:52;2.23;;;1.60;;
12812;SDS011;6471;50.932;6.934;2022-09-01T06:09:19;1.80;;;1.50;;
12812;SDS011;6471;50.932;6.934;2022-09-01T06:11:47;2.47;;;1.73;;
12812;SDS011;6471;50.932;6.934;2022-09-01T06:14:13;1.93;;;1.60;;
12812;SDS011;6471;50.932;6.934;2022-09-01T06:16:40;3.50;;;1.90;;
12812;SDS011;6471;50.932;6.934;2022-09-01T06:19:06;1.87;;;1.63;;
12812;SDS011;6471;50.932;6.934;2022-09-01T06:21:32;2.00;;;1.43;;
12812;SDS011;6471;50.932;6.934;2022-09-01T06:23:59;2.73;;;1.70;;
12812;SDS011;6471;50.932;6.934;2022-09-01T06:28:56;2.67;;;1.70;;
12812;SDS011;6471;50.932;6.934;2022-09-01T06:31:28;3.47;;;1.80;;
12812;SDS011;6471;50.932;6.934;2022-09-01T06:33:57;2.30;;;1.60;;
12812;SDS011;6471;50.932;6.934;2022-09-01T06:36:24;5.13;;;1.77;;
12812;SDS011;6471;50.932;6.934;2022-09-01T06:38:51;1.83;;;1.67;;
12812;SDS011;6471;50.932;6.934;2022-09-01T06:41:18;3.90;;;1.50;;
12812;SDS011;6471;50.932;6.934;2022-09-01T06:43:45;3.97;;;1.80;;
12812;SDS011;6471;50.932;6.934;2022-09-01T06:46:33;2.03;;;1.60;;
12812;SDS011;6471;50.932;6.934;2022-09-01T06:49:04;2.30;;;1.40;;
12812;SDS011;6471;50.932;6.934;2022-09-01T06:51:35;3.03;;;1.60;;
12812;SDS011;6471;50.932;6.934;2022-09-01T06:54:01;2.37;;;2.00;;
12812;SDS011;6471;50.932;6.934;2022-09-01T06:56:28;1.93;;;1.53;;
12812;SDS011;6471;50.932;6.934;2022-09-01T06:58:55;3.07;;;1.60;;
12812;SDS011;6471;50.932;6.934;2022-09-01T07:01:23;1.93;;;1.53;;
12812;SDS011;6471;50.932;6.934;2022-09-01T07:03:53;2.77;;;1.60;;
12812;SDS011;6471;50.932;6.934;2022-09-01T07:06:21;3.10;;;1.60;;
12812;SDS011;6471;50.932;6.934;2022-09-01T07:08:57;4.57;;;1.77;;
12812;SDS011;6471;50.932;6.934;2022-09-01T07:11:26;5.60;;;1.80;;
12812;SDS011;6471;50.932;6.934;2022-09-01T07:13:54;2.20;;;1.60;;
12812;SDS011;6471;50.932;6.934;2022-09-01T07:16:21;2.33;;;1.30;;
12812;SDS011;6471;50.932;6.934;2022-09-01T07:18:48;1.77;;;1.33;;
12812;SDS011;6471;50.932;6.934;2022-09-01T07:21:15;1.50;;;1.37;;
12812;SDS011;6471;50.932;6.934;2022-09-01T07:23:41;1.83;;;1.30;;
12812;SDS011;6471;50.932;6.934;2022-09-01T07:26:08;3.07;;;1.67;;
12812;SDS011;6471;50.932;6.934;2022-09-01T07:28:35;3.30;;;1.40;;
12812;SDS011;6471;50.932;6.934;2022-09-01T07:31:01;2.90;;;1.70;;
12812;SDS011;6471;50.932;6.934;2022-09-01T07:33:32;1.90;;;1.40;;
12812;SDS011;6471;50.932;6.934;2022-09-01T07:35:59;2.37;;;1.60;;
12812;SDS011;6471;50.932;6.934;2022-09-01T07:38:29;1.50;;;1.20;;
12812;SDS011;6471;50.932;6.934;2022-09-01T07:40:55;1.60;;;1.30;;
12812;SDS011;6471;50.932;6.934;2022-09-01T07:43:22;2.43;;;1.90;;
12812;SDS011;6471;50.932;6.934;2022-09-01T07:45:52;2.77;;;1.53;;
12812;SDS011;6471;50.932;6.934;2022-09-01T07:48:23;2.37;;;1.80;;
12812;SDS011;6471;50.932;6.934;2022-09-01T07:50:52;1.80;;;1.40;;
12812;SDS011;6471;50.932;6.934;2022-09-01T07:53:28;1.90;;;1.50;;
12812;SDS011;6471;50.932;6.934;2022-09-01T07:55:55;1.97;;;1.60;;
12812;SDS011;6471;50.932;6.934;2022-09-01T07:58:23;2.07;;;1.40;;
12812;SDS011;6471;50.932;6.934;2022-09-01T08:00:49;3.30;;;1.60;;
12812;SDS011;6471;50.932;6.934;2022-09-01T08:03:18;1.80;;;1.30;;
12812;SDS011;6471;50.932;6.934;2022-09-01T08:05:44;1.53;;;1.43;;
12812;SDS011;6471;50.932;6.934;2022-09-01T08:08:13;1.93;;;1.50;;
12812;SDS011;6471;50.932;6.934;2022-09-01T08:10:39;1.73;;;1.30;;
12812;SDS011;6471;50.932;6.934;2022-09-01T08:13:07;1.33;;;1.20;;
12812;SDS011;6471;50.932;6.934;2022-09-01T08:15:33;1.30;;;1.20;;
12812;SDS011;6471;50.932;6.934;2022-09-01T08:17:59;1.53;;;1.40;;
12812;SDS011;6471;50.932;6.934;2022-09-01T08:20:27;3.20;;;2.30;;
12812;SDS011;6471;50.932;6.934;2022-09-01T08:22:54;2.60;;;1.90;;
12812;SDS011;6471;50.932;6.934;2022-09-01T08:25:20;2.10;;;1.83;;
12812;SDS011;6471;50.932;6.934;2022-09-01T08:27:47;1.83;;;1.57;;
12812;SDS011;6471;50.932;6.934;2022-09-01T08:30:13;2.10;;;1.70;;
12812;SDS011;6471;50.932;6.934;2022-09-01T08:32:39;2.17;;;1.40;;
12812;SDS011;6471;50.932;6.934;2022-09-01T08:35:07;1.60;;;1.40;;
12812;SDS011;6471;50.932;6.934;2022-09-01T08:37:33;1.67;;;1.20;;
12812;SDS011;6471;50.932;6.934;2022-09-01T08:39:59;1.77;;;1.33;;
12812;SDS011;6471;50.932;6.934;2022-09-01T08:48:18;1.53;;;1.30;;
12812;SDS011;6471;50.932;6.934;2022-09-01T08:50:46;1.80;;;1.20;;
12812;SDS011;6471;50.932;6.934;2022-09-01T08:53:21;2.00;;;1.47;;
12812;SDS011;6471;50.932;6.934;2022-09-01T08:55:50;1.73;;;1.30;;
12812;SDS011;6471;50.932;6.934;2022-09-01T08:58:19;1.67;;;1.40;;
12812;SDS011;6471;50.932;6.934;2022-09-01T09:00:49;1.97;;;1.60;;
12812;SDS011;6471;50.932;6.934;2022-09-01T09:06:16;1.37;;;1.27;;
12812;SDS011;6471;50.932;6.934;2022-09-01T09:08:52;2.00;;;1.60;;
12812;SDS011;6471;50.932;6.934;2022-09-01T09:16:39;2.70;;;1.40;;
12812;SDS011;6471;50.932;6.934;2022-09-01T09:19:11;2.30;;;1.30;;
12812;SDS011;6471;50.932;6.934;2022-09-01T09:21:43;2.23;;;1.70;;
12812;SDS011;6471;50.932;6.934;2022-09-01T09:27:11;1.50;;;1.40;;
12812;SDS011;6471;50.932;6.934;2022-09-01T09:29:41;1.60;;;1.30;;
12812;SDS011;6471;50.932;6.934;2022-09-01T09:32:08;2.00;;;1.23;;
12812;SDS011;6471;50.932;6.934;2022-09-01T09:34:35;2.03;;;1.30;;
12812;SDS011;6471;50.932;6.934;2022-09-01T09:40:04;1.90;;;1.33;;
12812;SDS011;6471;50.932;6.934;2022-09-01T09:42:34;1.80;;;1.30;;
12812;SDS011;6471;50.932;6.934;2022-09-01T09:45:04;2.37;;;1.23;;
12812;SDS011;6471;50.932;6.934;2022-09-01T09:47:38;1.90;;;1.33;;
12812;SDS011;6471;50.932;6.934;2022-09-01T09:50:38;1.60;;;1.30;;
12812;SDS011;6471;50.932;6.934;2022-09-01T09:58:25;1.50;;;1.37;;
12812;SDS011;6471;50.932;6.934;2022-09-01T10:00:59;1.50;;;1.40;;
12812;SDS011;6471;50.932;6.934;2022-09-01T10:03:35;2.17;;;1.30;;
12812;SDS011;6471;50.932;6.934;2022-09-01T10:06:01;1.50;;;1.30;;
12812;SDS011;6471;50.932;6.934;2022-09-01T10:10:58;2.47;;;1.50;;
12812;SDS011;6471;50.932;6.934;2022-09-01T10:13:26;2.00;;;1.40;;
12812;SDS011;6471;50.932;6.934;2022-09-01T10:15:56;2.47;;;2.03;;
12812;SDS011;6471;50.932;6.934;2022-09-01T10:18:31;2.93;;;2.07;;
12812;SDS011;6471;50.932;6.934;2022-09-01T10:21:00;2.30;;;1.80;;
12812;SDS011;6471;50.932;6.934;2022-09-01T10:23:28;4.17;;;1.70;;
12812;SDS011;6471;50.932;6.934;2022-09-01T10:25:56;2.03;;;1.50;;
12812;SDS011;6471;50.932;6.934;2022-09-01T10:28:24;2.00;;;1.50;;
12812;SDS011;6471;50.932;6.934;2022-09-01T10:30:52;1.90;;;1.60;;
12812;SDS011;6471;50.932;6.934;2022-09-01T10:33:19;1.80;;;1.47;;
12812;SDS011;6471;50.932;6.934;2022-09-01T10:35:47;2.13;;;1.63;;
12812;SDS011;6471;50.932;6.934;2022-09-01T10:38:18;3.17;;;1.90;;
12812;SDS011;6471;50.932;6.934;2022-09-01T10:40:46;5.87;;;1.70;;
12812;SDS011;6471;50.932;6.934;2022-09-01T10:43:22;3.07;;;1.77;;
12812;SDS011;6471;50.932;6.934;2022-09-01T10:45:52;4.17;;;1.70;;
12812;SDS011;6471;50.932;6.934;2022-09-01T10:50:48;3.57;;;1.80;;
12812;SDS011;6471;50.932;6.934;2022-09-01T10:53:57;1.90;;;1.60;;
12812;SDS011;6471;50.932;6.934;2022-09-01T10:58:35;1.50;;;1.40;;
12812;SDS011;6471;50.932;6.934;2022-09-01T11:01:04;1.67;;;1.57;;
12812;SDS011;6471;50.932;6.934;2022-09-01T11:05:57;2.17;;;1.97;;
12812;SDS011;6471;50.932;6.934;2022-09-01T11:16:22;2.73;;;1.70;;
12812;SDS011;6471;50.932;6.934;2022-09-01T11:18:43;2.87;;;1.40;;
12812;SDS011;6471;50.932;6.934;2022-09-01T11:21:14;1.80;;;1.50;;
12812;SDS011;6471;50.932;6.934;2022-09-01T11:23:42;2.90;;;1.70;;
12812;SDS011;6471;50.932;6.934;2022-09-01T11:28:54;1.50;;;1.40;;
12812;SDS011;6471;50.932;6.934;2022-09-01T11:31:24;2.50;;;2.20;;
12812;SDS011;6471;50.932;6.934;2022-09-01T11:33:56;3.90;;;3.03;;
12812;SDS011;6471;50.932;6.934;2022-09-01T11:36:31;3.13;;;2.43;;
12812;SDS011;6471;50.932;6.934;2022-09-01T11:41:42;1.88;;;1.70;;
12812;SDS011;6471;50.932;6.934;2022-09-01T11:44:19;1.90;;;1.70;;
12812;SDS011;6471;50.932;6.934;2022-09-01T11:46:46;2.10;;;1.80;;
12812;SDS011;6471;50.932;6.934;2022-09-01T11:49:33;2.00;;;1.60;;
12812;SDS011;6471;50.932;6.934;2022-09-01T11:51:59;1.93;;;1.70;;
12812;SDS011;6471;50.932;6.934;2022-09-01T11:54:35;2.30;;;1.80;;
12812;SDS011;6471;50.932;6.934;2022-09-01T11:57:19;2.47;;;1.87;;
12812;SDS011;6471;50.932;6.934;2022-09-01T11:59:46;3.73;;;1.80;;
12812;SDS011;6471;50.932;6.934;2022-09-01T12:05:22;2.40;;;2.00;;
12812;SDS011;6471;50.932;6.934;2022-09-01T12:07:48;2.20;;;2.00;;
12812;SDS011;6471;50.932;6.934;2022-09-01T12:13:39;2.73;;;1.70;;
12812;SDS011;6471;50.932;6.934;2022-09-01T12:15:53;1.65;;;1.55;;
12812;SDS011;6471;50.932;6.934;2022-09-01T12:18:20;2.53;;;2.00;;
12812;SDS011;6471;50.932;6.934;2022-09-01T12:20:47;7.55;;;2.60;;
12812;SDS011;6471;50.932;6.934;2022-09-01T12:23:56;2.67;;;2.00;;
12812;SDS011;6471;50.932;6.934;2022-09-01T12:28:30;2.55;;;2.33;;
12812;SDS011;6471;50.932;6.934;2022-09-01T12:31:04;2.58;;;2.00;;
12812;SDS011;6471;50.932;6.934;2022-09-01T12:33:31;2.05;;;1.80;;
12812;SDS011;6471;50.932;6.934;2022-09-01T12:38:42;2.65;;;1.80;;
12812;SDS011;6471;50.932;6.934;2022-09-01T12:43:53;2.67;;;2.28;;
12812;SDS011;6471;50.932;6.934;2022-09-01T12:49:17;2.03;;;1.83;;
12812;SDS011;6471;50.932;6.934;2022-09-01T12:51:43;2.20;;;1.90;;
12812;SDS011;6471;50.932;6.934;2022-09-01T12:54:12;2.10;;;1.90;;
12812;SDS011;6471;50.932;6.934;2022-09-01T12:56:38;3.30;;;1.90;;
12812;SDS011;6471;50.932;6.934;2022-09-01T12:59:08;2.10;;;1.90;;
12812;SDS011;6471;50.932;6.934;2022-09-01T13:01:35;2.20;;;2.00;;
12812;SDS011;6471;50.932;6.934;2022-09-01T13:04:05;2.10;;;1.80;;
12812;SDS011;6471;50.932;6.934;2022-09-01T13:06:32;2.33;;;2.10;;
12812;SDS011;6471;50.932;6.934;2022-09-01T13:08:58;2.30;;;2.10;;
12812;SDS011;6471;50.932;6.934;2022-09-01T13:11:24;2.05;;;1.85;;
12812;SDS011;6471;50.932;6.934;2022-09-01T13:13:50;2.42;;;2.10;;
12812;SDS011;6471;50.932;6.934;2022-09-01T13:16:16;2.08;;;1.90;;
12812;SDS011;6471;50.932;6.934;2022-09-01T13:18:42;1.77;;;1.67;;
12812;SDS011;6471;50.932;6.934;2022-09-01T13:21:08;2.03;;;1.80;;
12812;SDS011;6471;50.932;6.934;2022-09-01T13:23:35;2.33;;;2.10;;
12812;SDS011;6471;50.932;6.934;2022-09-01T13:26:01;1.90;;;1.80;;
12812;SDS011;6471;50.932;6.934;2022-09-01T13:28:28;1.93;;;1.80;;
12812;SDS011;6471;50.932;6.934;2022-09-01T13:30:56;2.10;;;1.90;;
12812;SDS011;6471;50.932;6.934;2022-09-01T13:33:23;2.57;;;2.00;;
12812;SDS011;6471;50.932;6.934;2022-09-01T13:35:49;2.40;;;1.90;;
12812;SDS011;6471;50.932;6.934;2022-09-01T13:38:15;2.23;;;2.00;;
12812;SDS011;6471;50.932;6.934;2022-09-01T13:40:42;2.30;;;1.93;;
12812;SDS011;6471;50.932;6.934;2022-09-01T13:43:10;2.30;;;2.10;;
12812;SDS011;6471;50.932;6.934;2022-09-01T13:45:36;2.25;;;2.05;;
12812;SDS011;6471;50.932;6.934;2022-09-01T13:48:05;3.47;;;2.50;;
12812;SDS011;6471;50.932;6.934;2022-09-01T13:50:31;2.92;;;2.42;;
12812;SDS011;6471;50.932;6.934;2022-09-01T13:52:58;5.25;;;2.22;;
12812;SDS011;6471;50.932;6.934;2022-09-01T13:55:25;2.40;;;2.20;;
12812;SDS011;6471;50.932;6.934;2022-09-01T13:57:52;2.42;;;2.10;;
12812;SDS011;6471;50.932;6.934;2022-09-01T14:00:20;2.38;;;2.03;;
12812;SDS011;6471;50.932;6.934;2022-09-01T14:02:49;2.40;;;2.20;;
12812;SDS011;6471;50.932;6.934;2022-09-01T14:05:17;3.38;;;2.15;;
12812;SDS011;6471;50.932;6.934;2022-09-01T14:07:44;3.90;;;2.22;;
12812;SDS011;6471;50.932;6.934;2022-09-01T14:10:10;2.22;;;2.03;;
12812;SDS011;6471;50.932;6.934;2022-09-01T14:12:38;2.88;;;2.40;;
12812;SDS011;6471;50.932;6.934;2022-09-01T14:15:05;2.80;;;2.10;;
12812;SDS011;6471;50.932;6.934;2022-09-01T14:17:31;2.33;;;2.13;;
12812;SDS011;6471;50.932;6.934;2022-09-01T14:19:57;2.60;;;2.40;;
12812;SDS011;6471;50.932;6.934;2022-09-01T14:22:23;2.85;;;2.28;;
12812;SDS011;6471;50.932;6.934;2022-09-01T14:24:49;2.40;;;2.20;;
12812;SDS011;6471;50.932;6.934;2022-09-01T14:27:16;2.88;;;2.50;;
12812;SDS011;6471;50.932;6.934;2022-09-01T14:29:42;2.58;;;2.38;;
12812;SDS011;6471;50.932;6.934;2022-09-01T14:32:08;2.35;;;2.15;;
12812;SDS011;6471;50.932;6.934;2022-09-01T14:34:34;2.25;;;2.05;;
12812;SDS011;6471;50.932;6.934;2022-09-01T14:37:01;2.65;;;2.10;;
12812;SDS011;6471;50.932;6.934;2022-09-01T14:39:28;3.67;;;2.25;;
12812;SDS011;6471;50.932;6.934;2022-09-01T14:41:54;3.17;;;2.47;;
12812;SDS011;6471;50.932;6.934;2022-09-01T14:44:20;2.63;;;2.40;;
12812;SDS011;6471;50.932;6.934;2022-09-01T14:46:46;2.78;;;2.58;;
12812;SDS011;6471;50.932;6.934;2022-09-01T14:49:13;2.50;;;2.30;;
12812;SDS011;6471;50.932;6.934;2022-09-01T14:51:40;2.50;;;2.30;;
12812;SDS011;6471;50.932;6.934;2022-09-01T14:54:06;3.65;;;2.30;;
12812;SDS011;6471;50.932;6.934;2022-09-01T14:56:32;2.35;;;2.15;;
12812;SDS011;6471;50.932;6.934;2022-09-01T14:58:58;2.67;;;1.88;;
12812;SDS011;6471;50.932;6.934;2022-09-01T15:01:26;2.20;;;2.00;;
12812;SDS011;6471;50.932;6.934;2022-09-01T15:03:52;2.30;;;2.10;;
12812;SDS011;6471;50.932;6.934;2022-09-01T15:06:19;2.70;;;2.13;;
12812;SDS011;6471;50.932;6.934;2022-09-01T15:08:46;2.28;;;2.08;;
12812;SDS011;6471;50.932;6.934;2022-09-01T15:11:13;2.33;;;2.13;;
12812;SDS011;6471;50.932;6.934;2022-09-01T15:13:40;2.95;;;2.35;;
12812;SDS011;6471;50.932;6.934;2022-09-01T15:16:17;3.58;;;2.10;;
12812;SDS011;6471;50.932;6.934;2022-09-01T15:18:43;4.57;;;2.30;;
12812;SDS011;6471;50.932;6.934;2022-09-01T15:21:26;2.92;;;1.98;;
12812;SDS011;6471;50.932;6.934;2022-09-01T15:23:52;4.13;;;2.70;;
12812;SDS011;6471;50.932;6.934;2022-09-01T15:26:19;2.92;;;2.50;;
12812;SDS011;6471;50.932;6.934;2022-09-01T15:28:46;3.22;;;2.42;;
12812;SDS011;6471;50.932;6.934;2022-09-01T15:31:12;4.00;;;2.50;;
12812;SDS011;6471;50.932;6.934;2022-09-01T15:33:39;7.72;;;3.20;;
12812;SDS011;6471;50.932;6.934;2022-09-01T15:36:06;3.47;;;2.33;;
12812;SDS011;6471;50.932;6.934;2022-09-01T15:38:32;2.05;;;1.83;;
12812;SDS011;6471;50.932;6.934;2022-09-01T15:40:58;2.08;;;1.88;;
12812;SDS011;6471;50.932;6.934;2022-09-01T15:43:28;2.17;;;1.98;;
12812;SDS011;6471;50.932;6.934;2022-09-01T15:45:56;2.63;;;2.00;;
12812;SDS011;6471;50.932;6.934;2022-09-01T15:48:22;2.40;;;2.10;;
12812;SDS011;6471;50.932;6.934;2022-09-01T15:50:48;2.70;;;1.88;;
12812;SDS011;6471;50.932;6.934;2022-09-01T15:53:14;2.17;;;1.70;;
12812;SDS011;6471;50.932;6.934;2022-09-01T15:55:42;2.83;;;1.85;;
12812;SDS011;6471;50.932;6.934;2022-09-01T15:58:09;2.45;;;2.08;;
12812;SDS011;6471;50.932;6.934;2022-09-01T16:00:36;2.15;;;1.92;;
12812;SDS011;6471;50.932;6.934;2022-09-01T16:03:03;2.45;;;2.10;;
12812;SDS011;6471;50.932;6.934;2022-09-01T16:05:30;4.72;;;2.80;;
12812;SDS011;6471;50.932;6.934;2022-09-01T16:07:58;3.33;;;2.80;;
12812;SDS011;6471;50.932;6.934;2022-09-01T16:10:25;2.50;;;2.30;;
12812;SDS011;6471;50.932;6.934;2022-09-01T16:12:53;2.30;;;2.00;;
12812;SDS011;6471;50.932;6.934;2022-09-01T16:15:20;4.63;;;1.90;;
12812;SDS011;6471;50.932;6.934;2022-09-01T16:17:50;2.55;;;2.00;;
12812;SDS011;6471;50.932;6.934;2022-09-01T16:22:56;4.95;;;3.10;;
12812;SDS011;6471;50.932;6.934;2022-09-01T16:25:25;2.60;;;2.40;;
12812;SDS011;6471;50.932;6.934;2022-09-01T16:27:53;4.00;;;2.53;;
12812;SDS011;6471;50.932;6.934;2022-09-01T16:30:29;2.50;;;2.30;;
12812;SDS011;6471;50.932;6.934;2022-09-01T16:33:01;14.70;;;10.82;;
12812;SDS011;6471;50.932;6.934;2022-09-01T16:35:39;7.88;;;6.30;;
12812;SDS011;6471;50.932;6.934;2022-09-01T16:38:12;6.90;;;5.13;;